sensor_id;sensor_type;location;lat;lon;timestamp;pressure;altitude;pressure_sealevel;temperature;humidity
44079;BME280;29744;49.078;12.878;2023-04-27T00:02:33;96517.53;;;14.87;37.57
44079;BME280;29744;49.078;12.878;2023-04-27T00:07:34;96515.97;;;14.86;37.14
44079;BME280;29744;49.078;12.878;2023-04-27T00:12:34;96508.19;;;14.84;37.09
44079;BME280;29744;49.078;12.878;2023-04-27T00:17:34;96513.91;;;14.82;37.38
44079;BME280;29744;49.078;12.878;2023-04-27T00:22:34;96513.91;;;14.82;37.50
44079;BME280;29744;49.078;12.878;2023-04-27T00:27:35;96508.03;;;14.80;37.04
44079;BME280;29744;49.078;12.878;2023-04-27T00:32:35;96511.06;;;14.79;37.35
44079;BME280;29744;49.078;12.878;2023-04-27T00:37:36;96504.06;;;14.78;37.15
44079;BME280;29744;49.078;12.878;2023-04-27T00:42:36;96516.78;;;14.77;37.36
44079;BME280;29744;49.078;12.878;2023-04-27T00:47:36;96517.09;;;14.76;37.09
44079;BME280;29744;49.078;12.878;2023-04-27T00:52:37;96519.00;;;14.75;37.21
44079;BME280;29744;49.078;12.878;2023-04-27T00:57:37;96521.25;;;14.73;37.26
44079;BME280;29744;49.078;12.878;2023-04-27T01:02:39;96520.44;;;14.73;37.03
44079;BME280;29744;49.078;12.878;2023-04-27T01:07:39;96518.88;;;14.72;36.97
44079;BME280;29744;49.078;12.878;2023-04-27T01:12:40;96523.78;;;14.70;37.01
44079;BME280;29744;49.078;12.878;2023-04-27T01:17:40;96518.72;;;14.68;37.50
44079;BME280;29744;49.078;12.878;2023-04-27T01:22:42;96518.72;;;14.68;37.58
44079;BME280;29744;49.078;12.878;2023-04-27T01:27:42;96519.84;;;14.67;37.30
44079;BME280;29744;49.078;12.878;2023-04-27T01:32:42;96514.75;;;14.66;37.25
44079;BME280;29744;49.078;12.878;2023-04-27T01:37:43;96506.66;;;14.66;37.37
44079;BME280;29744;49.078;12.878;2023-04-27T01:42:43;96511.25;;;14.65;37.59
44079;BME280;29744;49.078;12.878;2023-04-27T01:47:43;96506.19;;;14.64;37.29
44079;BME280;29744;49.078;12.878;2023-04-27T01:52:43;96514.59;;;14.62;37.47
44079;BME280;29744;49.078;12.878;2023-04-27T01:57:44;96511.91;;;14.62;37.69
44079;BME280;29744;49.078;12.878;2023-04-27T02:02:44;96507.63;;;14.61;37.32
44079;BME280;29744;49.078;12.878;2023-04-27T02:07:45;96514.13;;;14.60;37.58
44079;BME280;29744;49.078;12.878;2023-04-27T02:12:45;96505.56;;;14.58;37.38
44079;BME280;29744;49.078;12.878;2023-04-27T02:17:45;96514.47;;;14.59;37.09
44079;BME280;29744;49.078;12.878;2023-04-27T02:22:45;96519.06;;;14.58;37.50
44079;BME280;29744;49.078;12.878;2023-04-27T02:27:46;96520.19;;;14.57;37.55
44079;BME280;29744;49.078;12.878;2023-04-27T02:32:46;96520.19;;;14.57;37.48
44079;BME280;29744;49.078;12.878;2023-04-27T02:37:47;96515.88;;;14.56;37.15
44079;BME280;29744;49.078;12.878;2023-04-27T02:42:47;96520.50;;;14.56;37.17
44079;BME280;29744;49.078;12.878;2023-04-27T02:47:47;96513.50;;;14.55;37.32
44079;BME280;29744;49.078;12.878;2023-04-27T02:52:49;96520.03;;;14.54;37.66
44079;BME280;29744;49.078;12.878;2023-04-27T02:57:50;96515.41;;;14.54;37.60
44079;BME280;29744;49.078;12.878;2023-04-27T03:02:50;96518.44;;;14.53;37.57
44079;BME280;29744;49.078;12.878;2023-04-27T03:07:50;96525.75;;;14.52;37.65
44079;BME280;29744;49.078;12.878;2023-04-27T03:12:51;96519.56;;;14.52;37.34
44079;BME280;29744;49.078;12.878;2023-04-27T03:17:51;96528.75;;;14.50;37.17
44079;BME280;29744;49.078;12.878;2023-04-27T03:22:51;96535.28;;;14.49;37.53
44079;BME280;29744;49.078;12.878;2023-04-27T03:27:51;96537.97;;;14.49;37.48
44079;BME280;29744;49.078;12.878;2023-04-27T03:32:52;96539.09;;;14.48;37.71
44079;BME280;29744;49.078;12.878;2023-04-27T03:37:52;96542.09;;;14.47;37.74
44079;BME280;29744;49.078;12.878;2023-04-27T03:42:52;96549.09;;;14.48;37.69
44079;BME280;29744;49.078;12.878;2023-04-27T03:47:52;96543.38;;;14.49;37.28
44079;BME280;29744;49.078;12.878;2023-04-27T03:52:53;96545.75;;;14.51;37.19
44079;BME280;29744;49.078;12.878;2023-04-27T03:57:53;96551.44;;;14.58;37.24
44079;BME280;29744;49.078;12.878;2023-04-27T04:02:53;96555.25;;;14.66;37.45
44079;BME280;29744;49.078;12.878;2023-04-27T04:07:53;96554.09;;;14.75;37.45
44079;BME280;29744;49.078;12.878;2023-04-27T04:12:54;96565.03;;;14.88;37.07
44079;BME280;29744;49.078;12.878;2023-04-27T04:17:54;96568.19;;;14.98;37.39
44079;BME280;29744;49.078;12.878;2023-04-27T04:22:54;96569.09;;;15.11;37.23
44079;BME280;29744;49.078;12.878;2023-04-27T04:27:55;96576.53;;;15.23;37.00
44079;BME280;29744;49.078;12.878;2023-04-27T04:32:55;96588.25;;;15.35;37.13
44079;BME280;29744;49.078;12.878;2023-04-27T04:37:56;96580.22;;;15.48;36.87
44079;BME280;29744;49.078;12.878;2023-04-27T04:42:56;96592.25;;;15.59;36.66
44079;BME280;29744;49.078;12.878;2023-04-27T04:47:56;96584.88;;;15.68;36.53
44079;BME280;29744;49.078;12.878;2023-04-27T04:52:56;96590.56;;;15.75;36.61
44079;BME280;29744;49.078;12.878;2023-04-27T04:57:57;96589.28;;;15.81;36.64
44079;BME280;29744;49.078;12.878;2023-04-27T05:02:57;96596.09;;;15.87;36.60
44079;BME280;29744;49.078;12.878;2023-04-27T05:07:57;96597.03;;;15.91;36.56
44079;BME280;29744;49.078;12.878;2023-04-27T05:12:57;96605.28;;;15.95;36.31
44079;BME280;29744;49.078;12.878;2023-04-27T05:17:58;96607.31;;;15.98;36.38
44079;BME280;29744;49.078;12.878;2023-04-27T05:22:58;96612.41;;;15.99;36.19
44079;BME280;29744;49.078;12.878;2023-04-27T05:27:58;96602.03;;;16.01;36.03
44079;BME280;29744;49.078;12.878;2023-04-27T05:32:59;96609.03;;;16.02;35.93
44079;BME280;29744;49.078;12.878;2023-04-27T05:37:59;96611.75;;;16.02;36.61
44079;BME280;29744;49.078;12.878;2023-04-27T05:43:00;96608.25;;;16.02;36.15
44079;BME280;29744;49.078;12.878;2023-04-27T05:48:04;96615.56;;;16.01;36.29
44079;BME280;29744;49.078;12.878;2023-04-27T05:53:04;96604.75;;;16.01;36.35
44079;BME280;29744;49.078;12.878;2023-04-27T05:58:05;96606.66;;;16.01;36.30
44079;BME280;29744;49.078;12.878;2023-04-27T06:03:06;96604.28;;;15.99;36.11
44079;BME280;29744;49.078;12.878;2023-04-27T06:08:06;96609.69;;;15.99;35.85
44079;BME280;29744;49.078;12.878;2023-04-27T06:13:06;96618.47;;;15.96;36.17
44079;BME280;29744;49.078;12.878;2023-04-27T06:18:07;96614.19;;;15.95;36.04
44079;BME280;29744;49.078;12.878;2023-04-27T06:23:07;96609.88;;;15.94;35.84
44079;BME280;29744;49.078;12.878;2023-04-27T06:28:07;96618.31;;;15.93;36.04
44079;BME280;29744;49.078;12.878;2023-04-27T06:33:07;96617.88;;;15.91;36.14
44079;BME280;29744;49.078;12.878;2023-04-27T06:38:08;96620.91;;;15.89;36.34
44079;BME280;29744;49.078;12.878;2023-04-27T06:43:08;96627.44;;;15.88;36.07
44079;BME280;29744;49.078;12.878;2023-04-27T06:48:08;96633.94;;;15.87;35.86
44079;BME280;29744;49.078;12.878;2023-04-27T06:53:09;96634.28;;;15.86;36.16
44079;BME280;29744;49.078;12.878;2023-04-27T06:58:09;96637.31;;;15.84;36.36
44079;BME280;29744;49.078;12.878;2023-04-27T07:03:10;96641.13;;;15.83;36.35
44079;BME280;29744;49.078;12.878;2023-04-27T07:08:11;96637.97;;;15.81;36.26
44079;BME280;29744;49.078;12.878;2023-04-27T07:13:11;96644.50;;;15.80;36.30
44079;BME280;29744;49.078;12.878;2023-04-27T07:18:11;96635.59;;;15.80;36.31
44079;BME280;29744;49.078;12.878;2023-04-27T07:23:11;96626.97;;;15.77;36.35
44079;BME280;29744;49.078;12.878;2023-04-27T07:28:12;96616.03;;;15.74;36.39
44079;BME280;29744;49.078;12.878;2023-04-27T07:33:12;96618.72;;;15.74;36.35
44079;BME280;29744;49.078;12.878;2023-04-27T07:38:12;96613.66;;;15.72;36.36
44079;BME280;29744;49.078;12.878;2023-04-27T07:43:13;96620.50;;;15.70;36.16
44079;BME280;29744;49.078;12.878;2023-04-27T07:48:14;96617.00;;;15.69;35.98
44079;BME280;29744;49.078;12.878;2023-04-27T07:53:15;96628.94;;;15.68;36.26
44079;BME280;29744;49.078;12.878;2023-04-27T07:58:15;96636.91;;;15.65;36.21
44079;BME280;29744;49.078;12.878;2023-04-27T08:03:16;96628.00;;;15.64;36.13
44079;BME280;29744;49.078;12.878;2023-04-27T08:08:16;96636.13;;;15.64;36.17
44079;BME280;29744;49.078;12.878;2023-04-27T08:13:16;96641.84;;;15.63;36.19
44079;BME280;29744;49.078;12.878;2023-04-27T08:18:16;96634.06;;;15.61;35.92
44079;BME280;29744;49.078;12.878;2023-04-27T08:23:17;96629.78;;;15.60;36.19
44079;BME280;29744;49.078;12.878;2023-04-27T08:28:20;96630.09;;;15.59;35.94
44079;BME280;29744;49.078;12.878;2023-04-27T08:33:20;96625.81;;;15.58;35.89
44079;BME280;29744;49.078;12.878;2023-04-27T08:38:20;96619.94;;;15.56;35.96
44079;BME280;29744;49.078;12.878;2023-04-27T08:43:20;96628.38;;;15.54;36.45
44079;BME280;29744;49.078;12.878;2023-04-27T08:48:21;96619.00;;;15.52;36.17
44079;BME280;29744;49.078;12.878;2023-04-27T08:53:22;96623.63;;;15.51;36.40
44079;BME280;29744;49.078;12.878;2023-04-27T08:58:34;96626.66;;;15.50;36.51
44079;BME280;29744;49.078;12.878;2023-04-27T09:03:35;96627.75;;;15.49;36.37
44079;BME280;29744;49.078;12.878;2023-04-27T09:08:49;96630.00;;;15.46;36.42
44079;BME280;29744;49.078;12.878;2023-04-27T09:13:50;96638.56;;;15.49;36.40
44079;BME280;29744;49.078;12.878;2023-04-27T09:18:50;96635.88;;;15.49;36.29
44079;BME280;29744;49.078;12.878;2023-04-27T09:23:51;96635.06;;;15.48;36.51
44079;BME280;29744;49.078;12.878;2023-04-27T09:28:54;96642.41;;;15.48;36.53
44079;BME280;29744;49.078;12.878;2023-04-27T09:33:57;96642.72;;;15.46;36.02
44079;BME280;29744;49.078;12.878;2023-04-27T09:39:02;96639.22;;;15.45;36.20
44079;BME280;29744;49.078;12.878;2023-04-27T09:44:03;96635.72;;;15.45;36.04
44079;BME280;29744;49.078;12.878;2023-04-27T09:49:04;96633.81;;;15.45;36.53
44079;BME280;29744;49.078;12.878;2023-04-27T09:54:06;96623.00;;;15.45;36.26
44079;BME280;29744;49.078;12.878;2023-04-27T09:59:35;96618.25;;;15.42;36.35
44079;BME280;29744;49.078;12.878;2023-04-27T10:10:02;96610.78;;;15.39;36.31
44079;BME280;29744;49.078;12.878;2023-04-27T10:15:15;96611.13;;;15.38;36.20
44079;BME280;29744;49.078;12.878;2023-04-27T10:20:15;96608.41;;;15.38;36.43
44079;BME280;29744;49.078;12.878;2023-04-27T10:25:21;96608.75;;;15.36;36.11
44079;BME280;29744;49.078;12.878;2023-04-27T10:30:30;96607.16;;;15.35;36.35
44079;BME280;29744;49.078;12.878;2023-04-27T10:35:41;96608.28;;;15.34;36.58
44079;BME280;29744;49.078;12.878;2023-04-27T10:40:54;96600.50;;;15.33;36.22
44079;BME280;29744;49.078;12.878;2023-04-27T10:46:12;96594.63;;;15.31;36.20
44079;BME280;29744;49.078;12.878;2023-04-27T10:51:16;96597.31;;;15.31;36.17
44079;BME280;29744;49.078;12.878;2023-04-27T10:56:19;96599.56;;;15.29;36.71
44079;BME280;29744;49.078;12.878;2023-04-27T11:01:23;96589.53;;;15.29;36.38
44079;BME280;29744;49.078;12.878;2023-04-27T11:06:24;96577.94;;;15.29;36.58
44079;BME280;29744;49.078;12.878;2023-04-27T11:11:25;96580.16;;;15.27;36.22
44079;BME280;29744;49.078;12.878;2023-04-27T11:16:25;96587.16;;;15.28;36.17
44079;BME280;29744;49.078;12.878;2023-04-27T11:21:26;96590.19;;;15.26;36.49
44079;BME280;29744;49.078;12.878;2023-04-27T11:26:27;96583.19;;;15.25;36.17
44079;BME280;29744;49.078;12.878;2023-04-27T11:31:38;96586.22;;;15.24;36.70
44079;BME280;29744;49.078;12.878;2023-04-27T11:36:39;96583.84;;;15.22;36.41
44079;BME280;29744;49.078;12.878;2023-04-27T11:41:39;96588.78;;;15.20;36.46
44079;BME280;29744;49.078;12.878;2023-04-27T11:46:45;96583.69;;;15.19;36.39
44079;BME280;29744;49.078;12.878;2023-04-27T11:51:46;96584.81;;;15.18;36.46
44079;BME280;29744;49.078;12.878;2023-04-27T11:56:47;96581.31;;;15.17;36.50
44079;BME280;29744;49.078;12.878;2023-04-27T12:01:48;96587.84;;;15.16;36.62
44079;BME280;29744;49.078;12.878;2023-04-27T12:06:48;96584.66;;;15.14;36.74
44079;BME280;29744;49.078;12.878;2023-04-27T12:11:48;96580.06;;;15.14;36.48
44079;BME280;29744;49.078;12.878;2023-04-27T12:16:48;96578.47;;;15.13;36.31
44079;BME280;29744;49.078;12.878;2023-04-27T12:21:49;96573.72;;;15.10;36.52
44079;BME280;29744;49.078;12.878;2023-04-27T12:26:49;96575.63;;;15.10;36.42
44079;BME280;29744;49.078;12.878;2023-04-27T12:31:50;96575.94;;;15.08;36.70
44079;BME280;29744;49.078;12.878;2023-04-27T12:36:51;96580.09;;;15.06;36.88
44079;BME280;29744;49.078;12.878;2023-04-27T12:41:52;96577.72;;;15.04;36.92
44079;BME280;29744;49.078;12.878;2023-04-27T12:46:52;96575.00;;;15.04;36.38
44079;BME280;29744;49.078;12.878;2023-04-27T12:51:53;96571.53;;;15.04;36.86
44079;BME280;29744;49.078;12.878;2023-04-27T12:56:53;96576.91;;;15.04;36.82
44079;BME280;29744;49.078;12.878;2023-04-27T13:01:54;96574.22;;;15.04;37.06
44079;BME280;29744;49.078;12.878;2023-04-27T13:06:54;96562.13;;;15.01;36.81
44079;BME280;29744;49.078;12.878;2023-04-27T13:11:55;96566.72;;;15.01;36.70
44079;BME280;29744;49.078;12.878;2023-04-27T13:16:56;96567.53;;;15.01;36.81
44079;BME280;29744;49.078;12.878;2023-04-27T13:21:56;96563.25;;;15.00;36.51
44079;BME280;29744;49.078;12.878;2023-04-27T13:26:57;96557.84;;;15.00;36.55
44079;BME280;29744;49.078;12.878;2023-04-27T13:31:57;96555.47;;;14.99;36.95
44079;BME280;29744;49.078;12.878;2023-04-27T13:36:57;96558.16;;;14.99;36.55
44079;BME280;29744;49.078;12.878;2023-04-27T13:41:58;96551.97;;;14.98;36.79
44079;BME280;29744;49.078;12.878;2023-04-27T13:46:58;96561.19;;;14.97;36.57
44079;BME280;29744;49.078;12.878;2023-04-27T13:51:59;96556.09;;;14.96;36.79
44079;BME280;29744;49.078;12.878;2023-04-27T13:56:59;96561.50;;;14.96;36.79
44079;BME280;29744;49.078;12.878;2023-04-27T14:01:59;96558.03;;;14.95;36.87
44079;BME280;29744;49.078;12.878;2023-04-27T14:07:00;96554.53;;;14.95;36.80
44079;BME280;29744;49.078;12.878;2023-04-27T14:12:00;96550.72;;;14.96;37.09
44079;BME280;29744;49.078;12.878;2023-04-27T14:17:01;96549.91;;;14.95;36.83
44079;BME280;29744;49.078;12.878;2023-04-27T14:22:01;96553.41;;;14.96;36.62
44079;BME280;29744;49.078;12.878;2023-04-27T14:27:03;96550.72;;;14.96;36.86
44079;BME280;29744;49.078;12.878;2023-04-27T14:32:03;96552.63;;;14.95;36.56
44079;BME280;29744;49.078;12.878;2023-04-27T14:37:05;96552.63;;;14.95;36.86
44079;BME280;29744;49.078;12.878;2023-04-27T14:42:05;96547.22;;;14.95;36.50
44079;BME280;29744;49.078;12.878;2023-04-27T14:47:05;96540.69;;;14.96;36.88
44079;BME280;29744;49.078;12.878;2023-04-27T14:52:06;96539.91;;;14.96;36.94
44079;BME280;29744;49.078;12.878;2023-04-27T14:57:07;96544.50;;;14.95;36.62
44079;BME280;29744;49.078;12.878;2023-04-27T15:02:07;96538.66;;;14.93;36.54
44079;BME280;29744;49.078;12.878;2023-04-27T15:07:07;96541.34;;;14.93;37.01
44079;BME280;29744;49.078;12.878;2023-04-27T15:12:08;96544.03;;;14.93;36.77
44079;BME280;29744;49.078;12.878;2023-04-27T15:17:09;96548.34;;;14.94;37.14
44079;BME280;29744;49.078;12.878;2023-04-27T15:22:09;96557.38;;;14.98;36.84
44079;BME280;29744;49.078;12.878;2023-04-27T15:27:09;96544.50;;;15.04;37.09
44079;BME280;29744;49.078;12.878;2023-04-27T15:32:10;96547.50;;;15.11;36.97
44079;BME280;29744;49.078;12.878;2023-04-27T15:37:10;96558.28;;;15.20;36.45
44079;BME280;29744;49.078;12.878;2023-04-27T15:42:11;96549.81;;;15.30;36.44
44079;BME280;29744;49.078;12.878;2023-04-27T15:47:12;96544.81;;;15.40;36.35
44079;BME280;29744;49.078;12.878;2023-04-27T15:52:13;96540.63;;;15.52;36.54
44079;BME280;29744;49.078;12.878;2023-04-27T15:57:13;96536.41;;;15.63;36.61
44079;BME280;29744;49.078;12.878;2023-04-27T16:02:13;96536.03;;;15.73;36.41
44079;BME280;29744;49.078;12.878;2023-04-27T16:07:13;96532.19;;;15.83;36.00
44079;BME280;29744;49.078;12.878;2023-04-27T16:12:14;96527.81;;;15.90;36.55
44079;BME280;29744;49.078;12.878;2023-04-27T16:17:14;96534.63;;;15.96;36.17
44079;BME280;29744;49.078;12.878;2023-04-27T16:22:14;96522.81;;;16.01;36.53
44079;BME280;29744;49.078;12.878;2023-04-27T16:27:18;96511.78;;;16.06;35.87
44079;BME280;29744;49.078;12.878;2023-04-27T16:32:19;96515.75;;;16.08;36.39
44079;BME280;29744;49.078;12.878;2023-04-27T16:37:19;96513.50;;;16.10;35.97
44079;BME280;29744;49.078;12.878;2023-04-27T16:42:20;96522.88;;;16.13;36.28
44079;BME280;29744;49.078;12.878;2023-04-27T16:47:20;96524.78;;;16.13;36.09
44079;BME280;29744;49.078;12.878;2023-04-27T16:52:20;96520.16;;;16.13;35.73
44079;BME280;29744;49.078;12.878;2023-04-27T16:57:21;96524.78;;;16.13;35.90
44079;BME280;29744;49.078;12.878;2023-04-27T17:02:21;96526.38;;;16.14;36.03
44079;BME280;29744;49.078;12.878;2023-04-27T17:07:21;96520.16;;;16.13;35.96
44079;BME280;29744;49.078;12.878;2023-04-27T17:12:22;96516.19;;;16.10;36.10
44079;BME280;29744;49.078;12.878;2023-04-27T17:17:22;96512.72;;;16.10;36.17
44079;BME280;29744;49.078;12.878;2023-04-27T17:22:22;96507.63;;;16.08;36.11
44079;BME280;29744;49.078;12.878;2023-04-27T17:27:23;96510.66;;;16.07;36.24
44079;BME280;29744;49.078;12.878;2023-04-27T17:32:23;96514.81;;;16.04;35.99
44079;BME280;29744;49.078;12.878;2023-04-27T17:37:23;96520.56;;;16.03;35.92
44079;BME280;29744;49.078;12.878;2023-04-27T17:42:23;96514.69;;;16.01;36.08
44079;BME280;29744;49.078;12.878;2023-04-27T17:47:24;96514.22;;;15.99;36.29
44079;BME280;29744;49.078;12.878;2023-04-27T17:52:24;96515.69;;;15.96;35.78
44079;BME280;29744;49.078;12.878;2023-04-27T17:57:25;96517.13;;;15.94;36.30
44079;BME280;29744;49.078;12.878;2023-04-27T18:02:25;96517.78;;;15.91;36.36
44079;BME280;29744;49.078;12.878;2023-04-27T18:07:25;96520.38;;;15.87;36.33
44079;BME280;29744;49.078;12.878;2023-04-27T18:12:26;96514.50;;;15.85;36.35
44079;BME280;29744;49.078;12.878;2023-04-27T18:17:26;96516.75;;;15.83;35.96
44079;BME280;29744;49.078;12.878;2023-04-27T18:22:26;96522.47;;;15.82;36.35
44079;BME280;29744;49.078;12.878;2023-04-27T18:27:26;96536.63;;;15.78;36.08
44079;BME280;29744;49.078;12.878;2023-04-27T18:32:27;96537.28;;;15.75;36.29
44079;BME280;29744;49.078;12.878;2023-04-27T18:37:27;96544.94;;;15.73;36.14
44079;BME280;29744;49.078;12.878;2023-04-27T18:42:28;96553.69;;;15.70;35.95
44079;BME280;29744;49.078;12.878;2023-04-27T18:47:28;96554.81;;;15.69;36.22
44079;BME280;29744;49.078;12.878;2023-04-27T18:52:29;96556.72;;;15.69;36.09
44079;BME280;29744;49.078;12.878;2023-04-27T18:57:29;96569.78;;;15.67;36.52
44079;BME280;29744;49.078;12.878;2023-04-27T19:02:31;96563.59;;;15.66;36.25
44079;BME280;29744;49.078;12.878;2023-04-27T19:07:31;96563.59;;;15.66;36.11
44079;BME280;29744;49.078;12.878;2023-04-27T19:12:32;96566.28;;;15.66;36.65
44079;BME280;29744;49.078;12.878;2023-04-27T19:17:32;96560.56;;;15.68;36.63
44079;BME280;29744;49.078;12.878;2023-04-27T19:22:34;96566.28;;;15.66;36.44
44079;BME280;29744;49.078;12.878;2023-04-27T19:27:35;96572.50;;;15.67;36.37
44079;BME280;29744;49.078;12.878;2023-04-27T19:32:36;96569.78;;;15.67;36.26
44079;BME280;29744;49.078;12.878;2023-04-27T19:37:36;96566.28;;;15.66;36.19
44079;BME280;29744;49.078;12.878;2023-04-27T19:42:36;96575.19;;;15.67;36.31
44079;BME280;29744;49.078;12.878;2023-04-27T19:47:37;96574.41;;;15.66;36.13
44079;BME280;29744;49.078;12.878;2023-04-27T19:52:37;96569.31;;;15.65;36.58
44079;BME280;29744;49.078;12.878;2023-04-27T19:57:37;96573.94;;;15.64;36.30
44079;BME280;29744;49.078;12.878;2023-04-27T20:02:37;96566.94;;;15.63;36.46
44079;BME280;29744;49.078;12.878;2023-04-27T20:07:38;96572.34;;;15.63;36.31
44079;BME280;29744;49.078;12.878;2023-04-27T20:12:38;96567.28;;;15.62;36.69
44079;BME280;29744;49.078;12.878;2023-04-27T20:17:39;96569.19;;;15.61;36.32
44079;BME280;29744;49.078;12.878;2023-04-27T20:22:39;96562.53;;;15.59;36.35
44079;BME280;29744;49.078;12.878;2023-04-27T20:27:40;96567.47;;;15.57;36.39
44079;BME280;29744;49.078;12.878;2023-04-27T20:32:40;96570.16;;;15.57;36.54
44079;BME280;29744;49.078;12.878;2023-04-27T20:37:40;96567.00;;;15.55;36.57
44079;BME280;29744;49.078;12.878;2023-04-27T20:42:42;96562.72;;;15.54;36.23
44079;BME280;29744;49.078;12.878;2023-04-27T20:47:44;96563.03;;;15.52;36.44
44079;BME280;29744;49.078;12.878;2023-04-27T20:52:44;96557.97;;;15.51;36.71
44079;BME280;29744;49.078;12.878;2023-04-27T20:57:45;96556.38;;;15.50;36.26
44079;BME280;29744;49.078;12.878;2023-04-27T21:02:45;96554.00;;;15.48;36.35
44079;BME280;29744;49.078;12.878;2023-04-27T21:07:47;96548.91;;;15.46;36.80
44079;BME280;29744;49.078;12.878;2023-04-27T21:12:47;96550.03;;;15.45;36.53
44079;BME280;29744;49.078;12.878;2023-04-27T21:17:47;96549.56;;;15.43;36.90
44079;BME280;29744;49.078;12.878;2023-04-27T21:22:47;96547.97;;;15.42;36.36
44079;BME280;29744;49.078;12.878;2023-04-27T21:27:48;96555.63;;;15.40;36.72
44079;BME280;29744;49.078;12.878;2023-04-27T21:32:48;96554.03;;;15.39;36.71
44079;BME280;29744;49.078;12.878;2023-04-27T21:37:48;96547.06;;;15.38;36.62
44079;BME280;29744;49.078;12.878;2023-04-27T21:42:52;96545.78;;;15.36;37.01
44079;BME280;29744;49.078;12.878;2023-04-27T21:47:52;96544.53;;;15.33;36.52
44079;BME280;29744;49.078;12.878;2023-04-27T21:52:53;96541.84;;;15.33;36.55
44079;BME280;29744;49.078;12.878;2023-04-27T21:57:53;96545.97;;;15.31;36.89
44079;BME280;29744;49.078;12.878;2023-04-27T22:02:56;96536.63;;;15.28;36.47
44079;BME280;29744;49.078;12.878;2023-04-27T22:07:57;96536.16;;;15.26;36.75
44079;BME280;29744;49.078;12.878;2023-04-27T22:12:57;96534.56;;;15.25;36.48
44079;BME280;29744;49.078;12.878;2023-04-27T22:17:57;96544.91;;;15.23;36.73
44079;BME280;29744;49.078;12.878;2023-04-27T22:22:58;96541.72;;;15.21;36.55
44079;BME280;29744;49.078;12.878;2023-04-27T22:27:58;96539.34;;;15.20;36.60
44079;BME280;29744;49.078;12.878;2023-04-27T22:33:00;96539.69;;;15.18;36.81
44079;BME280;29744;49.078;12.878;2023-04-27T22:38:01;96540.00;;;15.17;36.68
44079;BME280;29744;49.078;12.878;2023-04-27T22:43:01;96533.34;;;15.14;36.83
44079;BME280;29744;49.078;12.878;2023-04-27T22:48:01;96533.66;;;15.12;36.95
44079;BME280;29744;49.078;12.878;2023-04-27T22:53:02;96528.59;;;15.11;36.78
44079;BME280;29744;49.078;12.878;2023-04-27T22:58:02;96531.63;;;15.09;37.17
44079;BME280;29744;49.078;12.878;2023-04-27T23:03:03;96524.63;;;15.08;36.98
44079;BME280;29744;49.078;12.878;2023-04-27T23:08:03;96525.75;;;15.07;37.07
44079;BME280;29744;49.078;12.878;2023-04-27T23:13:04;96521.47;;;15.06;36.94
44079;BME280;29744;49.078;12.878;2023-04-27T23:18:06;96519.09;;;15.05;36.94
44079;BME280;29744;49.078;12.878;2023-04-27T23:23:06;96512.09;;;15.04;36.94
44079;BME280;29744;49.078;12.878;2023-04-27T23:28:06;96520.22;;;15.04;37.19
44079;BME280;29744;49.078;12.878;2023-04-27T23:33:07;96511.59;;;15.02;37.06
44079;BME280;29744;49.078;12.878;2023-04-27T23:38:07;96505.72;;;15.00;36.90
44079;BME280;29744;49.078;12.878;2023-04-27T23:43:07;96510.34;;;14.99;36.77
44079;BME280;29744;49.078;12.878;2023-04-27T23:48:07;96516.88;;;14.98;37.13
44079;BME280;29744;49.078;12.878;2023-04-27T23:53:08;96507.97;;;14.98;37.19
44079;BME280;29744;49.078;12.878;2023-04-27T23:58:08;96503.69;;;14.97;37.12
